sensor_id;sensor_type;location;lat;lon;timestamp;pressure;altitude;pressure_sealevel;temperature;humidity
77118;BME280;66072;50.238;19.228;2023-04-25T00:01:28;97399.42;;;9.29;90.02
77118;BME280;66072;50.238;19.228;2023-04-25T00:03:55;97401.85;;;9.28;90.37
77118;BME280;66072;50.238;19.228;2023-04-25T00:06:24;97399.83;;;9.28;90.44
77118;BME280;66072;50.238;19.228;2023-04-25T00:08:52;97401.73;;;9.27;90.75
77118;BME280;66072;50.238;19.228;2023-04-25T00:11:19;97399.55;;;9.26;90.94
77118;BME280;66072;50.238;19.228;2023-04-25T00:13:47;97395.54;;;9.25;90.76
77118;BME280;66072;50.238;19.228;2023-04-25T00:16:15;97397.25;;;9.25;91.39
77118;BME280;66072;50.238;19.228;2023-04-25T00:18:43;97394.92;;;9.24;91.22
77118;BME280;66072;50.238;19.228;2023-04-25T00:21:10;97396.10;;;9.24;91.14
77118;BME280;66072;50.238;19.228;2023-04-25T00:23:38;97395.78;;;9.24;91.61
77118;BME280;66072;50.238;19.228;2023-04-25T00:26:06;97394.30;;;9.23;91.41
77118;BME280;66072;50.238;19.228;2023-04-25T00:28:33;97395.86;;;9.23;91.31
77118;BME280;66072;50.238;19.228;2023-04-25T00:31:01;97396.67;;;9.23;91.27
77118;BME280;66072;50.238;19.228;2023-04-25T00:33:29;97396.16;;;9.23;91.26
77118;BME280;66072;50.238;19.228;2023-04-25T00:35:56;97397.66;;;9.24;91.16
77118;BME280;66072;50.238;19.228;2023-04-25T00:38:24;97397.98;;;9.24;91.02
77118;BME280;66072;50.238;19.228;2023-04-25T00:40:52;97398.61;;;9.25;91.20
77118;BME280;66072;50.238;19.228;2023-04-25T00:43:19;97399.61;;;9.25;91.38
77118;BME280;66072;50.238;19.228;2023-04-25T00:45:47;97402.38;;;9.25;91.33
77118;BME280;66072;50.238;19.228;2023-04-25T00:48:15;97407.08;;;9.26;91.07
77118;BME280;66072;50.238;19.228;2023-04-25T00:50:53;97403.65;;;9.26;90.92
77118;BME280;66072;50.238;19.228;2023-04-25T00:53:22;97405.15;;;9.27;91.02
77118;BME280;66072;50.238;19.228;2023-04-25T00:55:50;97402.91;;;9.27;91.16
77118;BME280;66072;50.238;19.228;2023-04-25T00:58:19;97402.05;;;9.27;91.70
77118;BME280;66072;50.238;19.228;2023-04-25T01:00:49;97404.11;;;9.27;91.78
77118;BME280;66072;50.238;19.228;2023-04-25T01:03:17;97403.74;;;9.28;91.71
77118;BME280;66072;50.238;19.228;2023-04-25T01:05:46;97403.09;;;9.27;91.71
77118;BME280;66072;50.238;19.228;2023-04-25T01:08:14;97403.48;;;9.26;91.69
77118;BME280;66072;50.238;19.228;2023-04-25T01:10:42;97400.91;;;9.26;91.47
77118;BME280;66072;50.238;19.228;2023-04-25T01:13:10;97405.98;;;9.28;91.39
77118;BME280;66072;50.238;19.228;2023-04-25T01:15:38;97403.17;;;9.29;91.49
77118;BME280;66072;50.238;19.228;2023-04-25T01:18:06;97402.94;;;9.30;91.51
77118;BME280;66072;50.238;19.228;2023-04-25T01:20:33;97403.55;;;9.31;91.97
77118;BME280;66072;50.238;19.228;2023-04-25T01:23:01;97406.95;;;9.31;91.78
77118;BME280;66072;50.238;19.228;2023-04-25T01:25:32;97402.60;;;9.30;91.82
77118;BME280;66072;50.238;19.228;2023-04-25T01:28:00;97403.20;;;9.28;91.82
77118;BME280;66072;50.238;19.228;2023-04-25T01:30:28;97400.56;;;9.26;91.58
77118;BME280;66072;50.238;19.228;2023-04-25T01:32:56;97401.72;;;9.24;91.42
77118;BME280;66072;50.238;19.228;2023-04-25T01:35:25;97401.88;;;9.22;91.43
77118;BME280;66072;50.238;19.228;2023-04-25T01:37:52;97405.73;;;9.20;91.22
77118;BME280;66072;50.238;19.228;2023-04-25T01:40:21;97403.64;;;9.18;91.16
77118;BME280;66072;50.238;19.228;2023-04-25T01:42:49;97405.63;;;9.16;91.13
77118;BME280;66072;50.238;19.228;2023-04-25T01:45:17;97411.14;;;9.14;90.56
77118;BME280;66072;50.238;19.228;2023-04-25T01:47:45;97410.81;;;9.11;90.47
77118;BME280;66072;50.238;19.228;2023-04-25T01:50:12;97417.83;;;9.08;90.40
77118;BME280;66072;50.238;19.228;2023-04-25T01:52:40;97418.78;;;9.03;90.11
77118;BME280;66072;50.238;19.228;2023-04-25T01:55:08;97415.90;;;9.00;89.92
77118;BME280;66072;50.238;19.228;2023-04-25T01:57:36;97422.11;;;8.96;90.07
77118;BME280;66072;50.238;19.228;2023-04-25T02:00:06;97419.43;;;8.92;90.10
77118;BME280;66072;50.238;19.228;2023-04-25T02:02:33;97420.30;;;8.88;90.30
77118;BME280;66072;50.238;19.228;2023-04-25T02:05:01;97414.70;;;8.85;89.97
77118;BME280;66072;50.238;19.228;2023-04-25T02:07:29;97411.05;;;8.83;89.64
77118;BME280;66072;50.238;19.228;2023-04-25T02:09:57;97414.79;;;8.81;89.42
77118;BME280;66072;50.238;19.228;2023-04-25T02:12:24;97419.83;;;8.79;89.64
77118;BME280;66072;50.238;19.228;2023-04-25T02:14:52;97418.59;;;8.77;89.26
77118;BME280;66072;50.238;19.228;2023-04-25T02:17:20;97416.95;;;8.76;89.05
77118;BME280;66072;50.238;19.228;2023-04-25T02:19:47;97417.02;;;8.75;89.37
77118;BME280;66072;50.238;19.228;2023-04-25T02:22:15;97420.50;;;8.73;89.61
77118;BME280;66072;50.238;19.228;2023-04-25T02:24:42;97418.91;;;8.71;90.06
77118;BME280;66072;50.238;19.228;2023-04-25T02:27:10;97421.88;;;8.70;89.93
77118;BME280;66072;50.238;19.228;2023-04-25T02:29:38;97419.67;;;8.67;90.18
77118;BME280;66072;50.238;19.228;2023-04-25T02:32:06;97426.27;;;8.65;89.77
77118;BME280;66072;50.238;19.228;2023-04-25T02:34:33;97424.02;;;8.62;89.60
77118;BME280;66072;50.238;19.228;2023-04-25T02:37:01;97422.77;;;8.60;89.37
77118;BME280;66072;50.238;19.228;2023-04-25T02:39:28;97424.86;;;8.59;89.58
77118;BME280;66072;50.238;19.228;2023-04-25T02:41:56;97428.60;;;8.56;89.64
77118;BME280;66072;50.238;19.228;2023-04-25T02:44:24;97424.13;;;8.54;90.48
77118;BME280;66072;50.238;19.228;2023-04-25T02:46:51;97430.66;;;8.53;91.12
77118;BME280;66072;50.238;19.228;2023-04-25T02:49:19;97433.09;;;8.52;91.26
77118;BME280;66072;50.238;19.228;2023-04-25T02:51:46;97434.81;;;8.51;91.62
77118;BME280;66072;50.238;19.228;2023-04-25T02:54:14;97432.70;;;8.50;91.74
77118;BME280;66072;50.238;19.228;2023-04-25T02:56:42;97439.77;;;8.48;91.62
77118;BME280;66072;50.238;19.228;2023-04-25T02:59:09;97438.50;;;8.47;91.32
77118;BME280;66072;50.238;19.228;2023-04-25T03:01:37;97437.29;;;8.44;91.10
77118;BME280;66072;50.238;19.228;2023-04-25T03:04:04;97439.80;;;8.42;90.96
77118;BME280;66072;50.238;19.228;2023-04-25T03:06:32;97438.77;;;8.38;90.89
77118;BME280;66072;50.238;19.228;2023-04-25T03:09:00;97435.81;;;8.36;91.13
77118;BME280;66072;50.238;19.228;2023-04-25T03:11:27;97439.15;;;8.34;91.30
77118;BME280;66072;50.238;19.228;2023-04-25T03:13:55;97436.94;;;8.31;91.27
77118;BME280;66072;50.238;19.228;2023-04-25T03:16:23;97443.04;;;8.28;91.41
77118;BME280;66072;50.238;19.228;2023-04-25T03:18:51;97447.02;;;8.24;91.23
77118;BME280;66072;50.238;19.228;2023-04-25T03:21:18;97447.85;;;8.21;91.12
77118;BME280;66072;50.238;19.228;2023-04-25T03:23:46;97443.61;;;8.18;91.06
77118;BME280;66072;50.238;19.228;2023-04-25T03:26:14;97439.82;;;8.15;90.94
77118;BME280;66072;50.238;19.228;2023-04-25T03:28:41;97439.09;;;8.13;90.96
77118;BME280;66072;50.238;19.228;2023-04-25T03:31:09;97443.59;;;8.12;91.03
77118;BME280;66072;50.238;19.228;2023-04-25T03:33:36;97446.77;;;8.09;90.76
77118;BME280;66072;50.238;19.228;2023-04-25T03:36:04;97451.48;;;8.07;90.96
77118;BME280;66072;50.238;19.228;2023-04-25T03:38:32;97450.09;;;8.04;90.88
77118;BME280;66072;50.238;19.228;2023-04-25T03:41:01;97451.05;;;8.02;91.01
77118;BME280;66072;50.238;19.228;2023-04-25T03:43:28;97453.88;;;8.00;90.68
77118;BME280;66072;50.238;19.228;2023-04-25T03:45:56;97454.30;;;7.99;90.60
77118;BME280;66072;50.238;19.228;2023-04-25T03:48:25;97456.09;;;7.97;90.64
77118;BME280;66072;50.238;19.228;2023-04-25T03:50:54;97458.73;;;7.95;90.52
77118;BME280;66072;50.238;19.228;2023-04-25T03:53:21;97458.09;;;7.95;90.37
77118;BME280;66072;50.238;19.228;2023-04-25T03:55:49;97464.76;;;7.95;90.40
77118;BME280;66072;50.238;19.228;2023-04-25T03:58:17;97468.02;;;7.94;90.34
77118;BME280;66072;50.238;19.228;2023-04-25T04:00:44;97471.48;;;7.93;90.53
77118;BME280;66072;50.238;19.228;2023-04-25T04:03:12;97475.41;;;7.92;90.40
77118;BME280;66072;50.238;19.228;2023-04-25T04:05:40;97476.48;;;7.91;90.47
77118;BME280;66072;50.238;19.228;2023-04-25T04:08:08;97479.89;;;7.91;90.49
77118;BME280;66072;50.238;19.228;2023-04-25T04:10:35;97483.06;;;7.89;90.59
77118;BME280;66072;50.238;19.228;2023-04-25T04:13:03;97485.55;;;7.88;90.40
77118;BME280;66072;50.238;19.228;2023-04-25T04:15:30;97485.20;;;7.84;90.39
77118;BME280;66072;50.238;19.228;2023-04-25T04:17:58;97490.10;;;7.82;90.35
77118;BME280;66072;50.238;19.228;2023-04-25T04:20:26;97489.70;;;7.80;90.08
77118;BME280;66072;50.238;19.228;2023-04-25T04:22:53;97490.13;;;7.78;90.17
77118;BME280;66072;50.238;19.228;2023-04-25T04:25:21;97494.90;;;7.77;90.05
77118;BME280;66072;50.238;19.228;2023-04-25T04:27:48;97493.92;;;7.77;89.89
77118;BME280;66072;50.238;19.228;2023-04-25T04:30:16;97495.39;;;7.75;89.32
77118;BME280;66072;50.238;19.228;2023-04-25T04:32:44;97496.58;;;7.75;89.10
77118;BME280;66072;50.238;19.228;2023-04-25T04:35:11;97499.26;;;7.76;88.75
77118;BME280;66072;50.238;19.228;2023-04-25T04:37:39;97498.70;;;7.77;88.34
77118;BME280;66072;50.238;19.228;2023-04-25T04:40:07;97496.23;;;7.78;88.27
77118;BME280;66072;50.238;19.228;2023-04-25T04:42:35;97498.06;;;7.79;88.14
77118;BME280;66072;50.238;19.228;2023-04-25T04:45:03;97499.45;;;7.78;88.03
77118;BME280;66072;50.238;19.228;2023-04-25T04:47:30;97497.55;;;7.79;87.85
77118;BME280;66072;50.238;19.228;2023-04-25T04:49:58;97497.86;;;7.79;87.78
77118;BME280;66072;50.238;19.228;2023-04-25T04:52:25;97499.45;;;7.78;87.27
77118;BME280;66072;50.238;19.228;2023-04-25T04:54:53;97499.63;;;7.78;87.29
77118;BME280;66072;50.238;19.228;2023-04-25T04:57:21;97499.42;;;7.79;87.26
77118;BME280;66072;50.238;19.228;2023-04-25T04:59:48;97501.33;;;7.78;87.10
77118;BME280;66072;50.238;19.228;2023-04-25T05:02:16;97497.60;;;7.78;86.61
77118;BME280;66072;50.238;19.228;2023-04-25T05:04:43;97498.46;;;7.78;86.55
77118;BME280;66072;50.238;19.228;2023-04-25T05:07:11;97500.36;;;7.81;86.86
77118;BME280;66072;50.238;19.228;2023-04-25T05:09:39;97498.67;;;7.84;86.64
77118;BME280;66072;50.238;19.228;2023-04-25T05:12:07;97496.52;;;7.86;86.19
77118;BME280;66072;50.238;19.228;2023-04-25T05:14:34;97500.86;;;7.88;85.49
77118;BME280;66072;50.238;19.228;2023-04-25T05:17:02;97503.11;;;7.90;85.35
77118;BME280;66072;50.238;19.228;2023-04-25T05:19:30;97504.86;;;7.93;84.92
77118;BME280;66072;50.238;19.228;2023-04-25T05:21:57;97507.10;;;7.95;85.05
77118;BME280;66072;50.238;19.228;2023-04-25T05:24:25;97503.86;;;7.99;85.05
77118;BME280;66072;50.238;19.228;2023-04-25T05:26:53;97506.77;;;8.05;85.25
77118;BME280;66072;50.238;19.228;2023-04-25T05:29:20;97508.36;;;8.11;84.87
77118;BME280;66072;50.238;19.228;2023-04-25T05:31:48;97509.92;;;8.17;84.70
77118;BME280;66072;50.238;19.228;2023-04-25T05:34:15;97508.04;;;8.20;84.05
77118;BME280;66072;50.238;19.228;2023-04-25T05:36:43;97508.27;;;8.22;83.47
77118;BME280;66072;50.238;19.228;2023-04-25T05:39:11;97511.02;;;8.28;83.84
77118;BME280;66072;50.238;19.228;2023-04-25T05:41:38;97516.02;;;8.34;83.85
77118;BME280;66072;50.238;19.228;2023-04-25T05:44:06;97516.11;;;8.39;83.38
77118;BME280;66072;50.238;19.228;2023-04-25T05:46:34;97517.62;;;8.46;83.88
77118;BME280;66072;50.238;19.228;2023-04-25T05:49:01;97517.31;;;8.55;84.05
77118;BME280;66072;50.238;19.228;2023-04-25T05:51:29;97515.34;;;8.63;83.55
77118;BME280;66072;50.238;19.228;2023-04-25T05:53:56;97517.80;;;8.71;83.77
77118;BME280;66072;50.238;19.228;2023-04-25T05:56:24;97517.59;;;8.81;82.95
77118;BME280;66072;50.238;19.228;2023-04-25T05:58:52;97516.31;;;8.89;82.42
77118;BME280;66072;50.238;19.228;2023-04-25T06:01:19;97518.29;;;8.93;80.61
77118;BME280;66072;50.238;19.228;2023-04-25T06:03:47;97519.51;;;8.96;79.70
77118;BME280;66072;50.238;19.228;2023-04-25T06:06:15;97517.56;;;9.03;79.39
77118;BME280;66072;50.238;19.228;2023-04-25T06:08:42;97522.25;;;9.11;79.45
77118;BME280;66072;50.238;19.228;2023-04-25T06:11:11;97523.05;;;9.27;79.52
77118;BME280;66072;50.238;19.228;2023-04-25T06:13:38;97524.05;;;9.42;78.75
77118;BME280;66072;50.238;19.228;2023-04-25T06:16:06;97524.68;;;9.58;78.02
77118;BME280;66072;50.238;19.228;2023-04-25T06:18:34;97527.07;;;9.73;77.09
77118;BME280;66072;50.238;19.228;2023-04-25T06:21:01;97527.15;;;9.92;76.53
77118;BME280;66072;50.238;19.228;2023-04-25T06:23:29;97531.05;;;10.04;74.48
77118;BME280;66072;50.238;19.228;2023-04-25T06:25:56;97526.11;;;10.15;74.12
77118;BME280;66072;50.238;19.228;2023-04-25T06:28:24;97524.06;;;10.20;73.08
77118;BME280;66072;50.238;19.228;2023-04-25T06:30:52;97526.80;;;10.27;73.66
77118;BME280;66072;50.238;19.228;2023-04-25T06:33:19;97524.90;;;10.30;72.12
77118;BME280;66072;50.238;19.228;2023-04-25T06:35:47;97527.05;;;10.32;73.22
77118;BME280;66072;50.238;19.228;2023-04-25T06:38:15;97530.83;;;10.34;71.78
77118;BME280;66072;50.238;19.228;2023-04-25T06:40:42;97533.59;;;10.25;71.04
77118;BME280;66072;50.238;19.228;2023-04-25T06:43:10;97536.56;;;10.14;70.70
77118;BME280;66072;50.238;19.228;2023-04-25T06:45:37;97533.66;;;10.12;71.21
77118;BME280;66072;50.238;19.228;2023-04-25T06:48:05;97534.07;;;10.08;71.42
77118;BME280;66072;50.238;19.228;2023-04-25T06:50:33;97537.77;;;10.12;71.71
77118;BME280;66072;50.238;19.228;2023-04-25T06:53:01;97537.87;;;10.13;70.61
77118;BME280;66072;50.238;19.228;2023-04-25T06:55:28;97535.17;;;10.06;69.97
77118;BME280;66072;50.238;19.228;2023-04-25T06:57:56;97531.66;;;10.05;71.70
77118;BME280;66072;50.238;19.228;2023-04-25T07:00:24;97529.23;;;10.14;71.98
77118;BME280;66072;50.238;19.228;2023-04-25T07:02:51;97531.38;;;10.18;70.55
77118;BME280;66072;50.238;19.228;2023-04-25T07:05:19;97532.86;;;10.19;70.43
77118;BME280;66072;50.238;19.228;2023-04-25T07:07:46;97532.52;;;10.20;70.22
77118;BME280;66072;50.238;19.228;2023-04-25T07:10:14;97533.91;;;10.19;69.18
77118;BME280;66072;50.238;19.228;2023-04-25T07:12:42;97533.52;;;10.08;68.46
77118;BME280;66072;50.238;19.228;2023-04-25T07:15:09;97536.80;;;10.02;69.04
77118;BME280;66072;50.238;19.228;2023-04-25T07:17:37;97534.17;;;10.06;69.87
77118;BME280;66072;50.238;19.228;2023-04-25T07:20:06;97534.95;;;10.13;68.96
77118;BME280;66072;50.238;19.228;2023-04-25T07:22:33;97530.65;;;10.11;68.50
77118;BME280;66072;50.238;19.228;2023-04-25T07:25:01;97532.80;;;10.12;68.75
77118;BME280;66072;50.238;19.228;2023-04-25T07:27:29;97533.35;;;10.11;68.16
77118;BME280;66072;50.238;19.228;2023-04-25T07:29:57;97532.87;;;10.13;68.63
77118;BME280;66072;50.238;19.228;2023-04-25T07:32:25;97536.58;;;10.20;68.76
77118;BME280;66072;50.238;19.228;2023-04-25T07:34:53;97534.60;;;10.25;68.14
77118;BME280;66072;50.238;19.228;2023-04-25T07:37:21;97537.27;;;10.23;66.85
77118;BME280;66072;50.238;19.228;2023-04-25T07:39:48;97540.17;;;10.20;67.14
77118;BME280;66072;50.238;19.228;2023-04-25T07:42:16;97536.64;;;10.19;66.61
77118;BME280;66072;50.238;19.228;2023-04-25T07:44:44;97532.20;;;10.22;67.94
77118;BME280;66072;50.238;19.228;2023-04-25T07:47:11;97534.05;;;10.32;67.96
77118;BME280;66072;50.238;19.228;2023-04-25T07:49:39;97536.99;;;10.37;66.92
77118;BME280;66072;50.238;19.228;2023-04-25T07:52:07;97538.74;;;10.33;66.82
77118;BME280;66072;50.238;19.228;2023-04-25T07:54:34;97543.05;;;10.43;67.49
77118;BME280;66072;50.238;19.228;2023-04-25T07:57:02;97538.61;;;10.63;67.92
77118;BME280;66072;50.238;19.228;2023-04-25T07:59:29;97536.07;;;10.85;67.40
77118;BME280;66072;50.238;19.228;2023-04-25T08:01:57;97538.34;;;11.03;66.00
77118;BME280;66072;50.238;19.228;2023-04-25T08:04:25;97540.27;;;11.05;63.40
77118;BME280;66072;50.238;19.228;2023-04-25T08:06:53;97539.33;;;10.98;64.09
77118;BME280;66072;50.238;19.228;2023-04-25T08:09:20;97538.60;;;11.04;64.89
77118;BME280;66072;50.238;19.228;2023-04-25T08:11:48;97541.94;;;11.11;64.42
77118;BME280;66072;50.238;19.228;2023-04-25T08:14:16;97539.41;;;11.13;63.53
77118;BME280;66072;50.238;19.228;2023-04-25T08:16:44;97540.61;;;11.08;62.61
77118;BME280;66072;50.238;19.228;2023-04-25T08:19:11;97538.65;;;11.07;64.36
77118;BME280;66072;50.238;19.228;2023-04-25T08:21:39;97538.11;;;11.15;63.57
77118;BME280;66072;50.238;19.228;2023-04-25T08:24:07;97537.14;;;11.25;64.05
77118;BME280;66072;50.238;19.228;2023-04-25T08:26:35;97536.09;;;11.41;63.59
77118;BME280;66072;50.238;19.228;2023-04-25T08:29:02;97536.80;;;11.61;63.84
77118;BME280;66072;50.238;19.228;2023-04-25T08:31:30;97539.51;;;11.88;61.50
77118;BME280;66072;50.238;19.228;2023-04-25T08:33:57;97541.39;;;12.01;61.13
77118;BME280;66072;50.238;19.228;2023-04-25T08:36:25;97537.30;;;12.29;61.63
77118;BME280;66072;50.238;19.228;2023-04-25T08:39:05;97542.27;;;12.63;60.05
77118;BME280;66072;50.238;19.228;2023-04-25T08:41:34;97540.98;;;12.75;57.86
77118;BME280;66072;50.238;19.228;2023-04-25T08:44:03;97542.41;;;12.98;57.95
77118;BME280;66072;50.238;19.228;2023-04-25T08:46:30;97543.70;;;13.02;56.08
77118;BME280;66072;50.238;19.228;2023-04-25T08:49:01;97542.21;;;12.96;55.31
77118;BME280;66072;50.238;19.228;2023-04-25T08:51:31;97544.02;;;12.99;55.47
77118;BME280;66072;50.238;19.228;2023-04-25T08:54:11;97544.31;;;13.10;55.50
77118;BME280;66072;50.238;19.228;2023-04-25T08:56:47;97541.53;;;13.23;55.05
77118;BME280;66072;50.238;19.228;2023-04-25T08:59:15;97544.55;;;13.19;54.33
77118;BME280;66072;50.238;19.228;2023-04-25T09:01:42;97543.82;;;13.10;53.47
77118;BME280;66072;50.238;19.228;2023-04-25T09:04:12;97541.02;;;12.98;52.99
77118;BME280;66072;50.238;19.228;2023-04-25T09:06:39;97542.44;;;13.03;54.44
77118;BME280;66072;50.238;19.228;2023-04-25T09:09:08;97541.85;;;13.18;54.10
77118;BME280;66072;50.238;19.228;2023-04-25T09:11:36;97544.06;;;13.16;53.40
77118;BME280;66072;50.238;19.228;2023-04-25T09:14:20;97540.58;;;13.29;54.75
77118;BME280;66072;50.238;19.228;2023-04-25T09:19:27;97545.27;;;13.26;52.31
77118;BME280;66072;50.238;19.228;2023-04-25T09:22:08;97545.88;;;13.19;52.44
77118;BME280;66072;50.238;19.228;2023-04-25T09:24:40;97544.11;;;13.15;53.61
77118;BME280;66072;50.238;19.228;2023-04-25T09:27:10;97540.77;;;13.11;53.63
77118;BME280;66072;50.238;19.228;2023-04-25T09:29:39;97546.19;;;13.12;52.99
77118;BME280;66072;50.238;19.228;2023-04-25T09:32:13;97547.73;;;13.22;52.99
77118;BME280;66072;50.238;19.228;2023-04-25T09:34:43;97541.05;;;13.36;52.36
77118;BME280;66072;50.238;19.228;2023-04-25T09:37:11;97541.80;;;13.42;50.09
77118;BME280;66072;50.238;19.228;2023-04-25T09:39:39;97536.41;;;13.32;49.08
77118;BME280;66072;50.238;19.228;2023-04-25T09:42:09;97535.52;;;13.34;50.29
77118;BME280;66072;50.238;19.228;2023-04-25T09:44:36;97543.36;;;13.23;49.01
77118;BME280;66072;50.238;19.228;2023-04-25T09:47:09;97542.50;;;13.13;49.06
77118;BME280;66072;50.238;19.228;2023-04-25T09:49:39;97540.22;;;13.05;49.39
77118;BME280;66072;50.238;19.228;2023-04-25T09:52:08;97549.33;;;13.12;50.08
77118;BME280;66072;50.238;19.228;2023-04-25T09:54:36;97546.40;;;13.19;49.40
77118;BME280;66072;50.238;19.228;2023-04-25T09:57:22;97551.98;;;13.11;49.00
77118;BME280;66072;50.238;19.228;2023-04-25T09:59:52;97548.02;;;12.94;49.84
77118;BME280;66072;50.238;19.228;2023-04-25T10:02:25;97547.65;;;12.79;50.79
77118;BME280;66072;50.238;19.228;2023-04-25T10:04:54;97540.39;;;12.73;51.50
77118;BME280;66072;50.238;19.228;2023-04-25T10:07:24;97547.02;;;12.67;50.80
77118;BME280;66072;50.238;19.228;2023-04-25T10:09:57;97543.13;;;12.66;50.04
77118;BME280;66072;50.238;19.228;2023-04-25T10:12:26;97544.84;;;12.95;50.43
77118;BME280;66072;50.238;19.228;2023-04-25T10:14:54;97535.84;;;13.53;49.27
77118;BME280;66072;50.238;19.228;2023-04-25T10:17:22;97537.85;;;14.39;47.88
77118;BME280;66072;50.238;19.228;2023-04-25T10:19:50;97530.09;;;15.07;44.75
77118;BME280;66072;50.238;19.228;2023-04-25T10:22:26;97529.61;;;15.65;44.66
77118;BME280;66072;50.238;19.228;2023-04-25T10:24:56;97526.37;;;16.26;43.05
77118;BME280;66072;50.238;19.228;2023-04-25T10:27:27;97530.83;;;16.43;40.70
77118;BME280;66072;50.238;19.228;2023-04-25T10:30:07;97528.80;;;16.34;41.10
77118;BME280;66072;50.238;19.228;2023-04-25T10:32:35;97533.27;;;16.32;40.40
77118;BME280;66072;50.238;19.228;2023-04-25T10:35:14;97525.48;;;16.17;41.43
77118;BME280;66072;50.238;19.228;2023-04-25T10:38:04;97523.30;;;16.18;40.34
77118;BME280;66072;50.238;19.228;2023-04-25T10:40:33;97524.30;;;16.28;40.52
77118;BME280;66072;50.238;19.228;2023-04-25T10:43:38;97526.93;;;16.52;40.49
77118;BME280;66072;50.238;19.228;2023-04-25T10:46:24;97523.67;;;16.92;38.79
77118;BME280;66072;50.238;19.228;2023-04-25T10:48:54;97524.85;;;16.50;38.81
77118;BME280;66072;50.238;19.228;2023-04-25T10:51:24;97523.58;;;16.14;39.48
77118;BME280;66072;50.238;19.228;2023-04-25T10:56:24;97516.76;;;16.54;39.18
77118;BME280;66072;50.238;19.228;2023-04-25T10:59:03;97511.02;;;16.77;39.37
77118;BME280;66072;50.238;19.228;2023-04-25T11:01:39;97515.77;;;16.65;39.61
77118;BME280;66072;50.238;19.228;2023-04-25T11:04:22;97517.13;;;16.58;39.86
77118;BME280;66072;50.238;19.228;2023-04-25T11:09:47;97512.88;;;16.27;39.29
77118;BME280;66072;50.238;19.228;2023-04-25T11:12:15;97512.31;;;16.04;39.37
77118;BME280;66072;50.238;19.228;2023-04-25T11:14:43;97513.71;;;15.80;40.11
77118;BME280;66072;50.238;19.228;2023-04-25T11:17:11;97514.14;;;15.69;40.63
77118;BME280;66072;50.238;19.228;2023-04-25T11:19:39;97518.77;;;15.79;39.74
77118;BME280;66072;50.238;19.228;2023-04-25T11:22:06;97512.48;;;15.76;39.71
77118;BME280;66072;50.238;19.228;2023-04-25T11:24:35;97514.99;;;15.79;39.87
77118;BME280;66072;50.238;19.228;2023-04-25T11:27:04;97514.38;;;15.93;39.60
77118;BME280;66072;50.238;19.228;2023-04-25T11:29:33;97514.48;;;16.03;40.04
77118;BME280;66072;50.238;19.228;2023-04-25T11:32:01;97514.00;;;15.87;39.37
77118;BME280;66072;50.238;19.228;2023-04-25T11:34:30;97511.58;;;15.66;39.59
77118;BME280;66072;50.238;19.228;2023-04-25T11:36:59;97514.77;;;15.46;41.03
77118;BME280;66072;50.238;19.228;2023-04-25T11:39:28;97516.16;;;15.11;40.90
77118;BME280;66072;50.238;19.228;2023-04-25T11:41:56;97520.41;;;14.69;40.31
77118;BME280;66072;50.238;19.228;2023-04-25T11:44:24;97524.34;;;14.44;42.15
77118;BME280;66072;50.238;19.228;2023-04-25T11:46:51;97518.70;;;14.19;41.93
77118;BME280;66072;50.238;19.228;2023-04-25T11:49:19;97519.27;;;13.85;42.41
77118;BME280;66072;50.238;19.228;2023-04-25T11:51:47;97519.30;;;13.75;43.51
77118;BME280;66072;50.238;19.228;2023-04-25T11:54:16;97523.10;;;13.61;43.07
77118;BME280;66072;50.238;19.228;2023-04-25T11:56:44;97522.41;;;13.54;44.05
77118;BME280;66072;50.238;19.228;2023-04-25T11:59:13;97524.16;;;13.37;44.18
77118;BME280;66072;50.238;19.228;2023-04-25T12:01:41;97521.82;;;13.27;45.28
77118;BME280;66072;50.238;19.228;2023-04-25T12:04:20;97519.70;;;13.32;45.15
77118;BME280;66072;50.238;19.228;2023-04-25T12:06:52;97521.95;;;13.39;44.48
77118;BME280;66072;50.238;19.228;2023-04-25T12:09:28;97521.84;;;13.38;44.23
77118;BME280;66072;50.238;19.228;2023-04-25T12:11:57;97518.25;;;13.45;45.22
77118;BME280;66072;50.238;19.228;2023-04-25T12:14:27;97517.85;;;13.51;44.89
77118;BME280;66072;50.238;19.228;2023-04-25T12:16:57;97519.45;;;13.55;44.88
77118;BME280;66072;50.238;19.228;2023-04-25T12:19:25;97523.19;;;13.64;44.42
77118;BME280;66072;50.238;19.228;2023-04-25T12:21:53;97526.63;;;13.64;44.12
77118;BME280;66072;50.238;19.228;2023-04-25T12:24:26;97526.95;;;13.67;43.42
77118;BME280;66072;50.238;19.228;2023-04-25T12:27:04;97521.73;;;13.56;42.91
77118;BME280;66072;50.238;19.228;2023-04-25T12:29:33;97523.20;;;13.46;43.80
77118;BME280;66072;50.238;19.228;2023-04-25T12:32:16;97528.27;;;13.21;44.54
77118;BME280;66072;50.238;19.228;2023-04-25T12:34:43;97533.86;;;12.88;44.46
77118;BME280;66072;50.238;19.228;2023-04-25T12:37:11;97533.39;;;12.82;45.27
77118;BME280;66072;50.238;19.228;2023-04-25T12:39:39;97528.88;;;12.95;45.11
77118;BME280;66072;50.238;19.228;2023-04-25T12:42:07;97531.77;;;13.08;44.08
77118;BME280;66072;50.238;19.228;2023-04-25T12:44:36;97531.71;;;13.15;43.73
77118;BME280;66072;50.238;19.228;2023-04-25T12:47:04;97531.77;;;13.17;44.18
77118;BME280;66072;50.238;19.228;2023-04-25T12:49:32;97535.86;;;13.13;43.90
77118;BME280;66072;50.238;19.228;2023-04-25T12:51:59;97537.77;;;13.05;44.40
77118;BME280;66072;50.238;19.228;2023-04-25T12:54:27;97537.17;;;12.97;44.59
77118;BME280;66072;50.238;19.228;2023-04-25T12:56:54;97532.92;;;12.94;44.68
77118;BME280;66072;50.238;19.228;2023-04-25T12:59:22;97529.07;;;12.87;44.73
77118;BME280;66072;50.238;19.228;2023-04-25T13:01:50;97530.60;;;12.78;43.94
77118;BME280;66072;50.238;19.228;2023-04-25T13:04:17;97531.00;;;12.63;44.76
77118;BME280;66072;50.238;19.228;2023-04-25T13:06:45;97532.80;;;12.52;45.36
77118;BME280;66072;50.238;19.228;2023-04-25T13:09:13;97533.14;;;12.44;45.03
77118;BME280;66072;50.238;19.228;2023-04-25T13:11:40;97529.11;;;12.46;46.08